createdAt,value
2019-05-21T00:01:22.109Z,41.30
2019-05-21T00:03:51.891Z,46.03
2019-05-21T00:06:21.748Z,43.93
2019-05-21T00:08:51.439Z,44.77
2019-05-21T00:11:21.138Z,46.00
2019-05-21T00:13:51.226Z,44.07
2019-05-21T00:16:21.032Z,50.83
2019-05-21T00:18:50.780Z,46.50
2019-05-21T00:21:20.561Z,53.73
2019-05-21T00:23:50.247Z,53.43
2019-05-21T00:26:19.959Z,48.87
2019-05-21T00:29:26.115Z,49.17
2019-05-21T00:32:32.226Z,60.07
2019-05-21T00:35:47.828Z,57.43
2019-05-21T00:38:53.579Z,34.67
2019-05-21T00:42:01.642Z,25.53
2019-05-21T00:44:35.170Z,23.77
2019-05-21T00:47:06.731Z,31.17
2019-05-21T00:49:36.613Z,37.20
2019-05-21T00:52:08.708Z,27.13
2019-05-21T00:54:38.740Z,34.87
2019-05-21T00:57:08.586Z,24.60
2019-05-21T00:59:38.290Z,27.63
2019-05-21T01:02:08.224Z,24.30
2019-05-21T01:04:38.070Z,29.27
2019-05-21T01:07:07.878Z,31.30
2019-05-21T01:09:37.634Z,30.00
2019-05-21T01:12:07.427Z,35.30
2019-05-21T01:14:37.211Z,30.13
2019-05-21T01:17:06.905Z,32.13
2019-05-21T01:19:36.704Z,33.13
2019-05-21T01:22:06.526Z,28.13
2019-05-21T01:24:36.310Z,29.47
2019-05-21T01:27:06.035Z,28.23
2019-05-21T01:29:35.796Z,31.60
2019-05-21T01:32:05.582Z,29.83
2019-05-21T01:34:35.667Z,31.50
2019-05-21T01:37:05.549Z,44.00
2019-05-21T01:39:35.265Z,38.13
2019-05-21T01:42:05.066Z,36.67
2019-05-21T01:44:34.796Z,35.97
2019-05-21T01:47:04.583Z,33.40
2019-05-21T01:49:34.358Z,31.83
2019-05-21T01:52:04.162Z,42.40
2019-05-21T01:54:33.865Z,37.43
2019-05-21T01:57:03.778Z,50.90
2019-05-21T01:59:33.474Z,38.10
2019-05-21T02:02:03.408Z,45.33
2019-05-21T02:04:33.204Z,44.03
2019-05-21T02:07:02.897Z,50.20
2019-05-21T02:09:34.659Z,49.93
2019-05-21T02:12:04.527Z,41.20
2019-05-21T02:14:34.226Z,61.33
2019-05-21T02:17:03.999Z,53.03
2019-05-21T02:19:33.786Z,47.17
2019-05-21T02:22:03.535Z,48.77
2019-05-21T02:24:35.801Z,50.27
2019-05-21T02:27:05.578Z,45.83
2019-05-21T02:29:35.309Z,54.80
2019-05-21T02:32:05.058Z,44.47
2019-05-21T02:34:34.844Z,46.30
2019-05-21T02:37:06.282Z,45.67
2019-05-21T02:39:37.067Z,40.77
2019-05-21T02:42:06.810Z,38.83
2019-05-21T02:44:36.524Z,49.47
2019-05-21T02:47:07.347Z,49.60
2019-05-21T02:49:37.039Z,43.70
2019-05-21T02:52:06.887Z,49.50
2019-05-21T02:54:40.857Z,37.17
2019-05-21T02:57:08.235Z,40.07
2019-05-21T02:59:38.508Z,35.33
2019-05-21T03:02:14.775Z,45.20
2019-05-21T03:04:44.469Z,37.43
2019-05-21T03:07:20.322Z,35.43
2019-05-21T03:09:50.519Z,41.33
2019-05-21T03:12:20.369Z,50.30
2019-05-21T03:14:50.077Z,35.77
2019-05-21T03:17:19.781Z,43.00
2019-05-21T03:19:49.604Z,42.47
2019-05-21T03:22:19.316Z,43.33
2019-05-21T03:24:49.100Z,42.67
2019-05-21T03:27:18.799Z,43.80
2019-05-21T03:29:48.809Z,33.93
2019-05-21T03:32:20.897Z,49.53
2019-05-21T03:34:50.574Z,43.27
2019-05-21T03:37:20.288Z,39.20
2019-05-21T03:39:50.004Z,34.73
2019-05-21T03:42:19.791Z,46.03
2019-05-21T03:45:00.003Z,46.50
2019-05-21T03:47:21.069Z,32.37
2019-05-21T03:49:50.850Z,38.90
2019-05-21T03:52:20.568Z,33.80
2019-05-21T03:54:50.364Z,38.13
2019-05-21T03:57:20.063Z,35.63
2019-05-21T03:59:49.872Z,39.07
2019-05-21T04:02:19.641Z,54.23
2019-05-21T04:04:49.425Z,38.13
2019-05-21T04:07:19.216Z,44.43
2019-05-21T04:09:48.987Z,43.03
2019-05-21T04:12:18.759Z,36.20
2019-05-21T04:14:55.283Z,31.50
2019-05-21T04:17:56.494Z,38.67
2019-05-21T04:20:26.259Z,32.87
2019-05-21T04:22:56.935Z,33.77
2019-05-21T04:25:26.825Z,41.73
2019-05-21T04:27:56.545Z,50.97
2019-05-21T04:30:26.311Z,44.17
2019-05-21T04:32:56.177Z,32.43
2019-05-21T04:35:26.047Z,31.37
2019-05-21T04:37:56.088Z,30.63
2019-05-21T04:40:25.983Z,24.50
2019-05-21T04:42:55.776Z,22.90
2019-05-21T04:45:25.576Z,35.43
2019-05-21T04:47:55.399Z,32.97
2019-05-21T04:50:25.083Z,28.43
2019-05-21T04:52:54.916Z,29.50
2019-05-21T04:55:24.610Z,34.90
2019-05-21T04:57:54.431Z,35.57
2019-05-21T05:00:24.144Z,39.63
2019-05-21T05:02:54.169Z,31.53
2019-05-21T05:05:24.024Z,26.43
2019-05-21T05:07:53.859Z,33.17
2019-05-21T05:10:23.544Z,31.37
2019-05-21T05:12:55.307Z,35.57
2019-05-21T05:15:27.486Z,36.37
2019-05-21T05:17:57.214Z,24.83
2019-05-21T05:20:27.057Z,32.67
2019-05-21T05:22:56.850Z,30.07
2019-05-21T05:25:26.731Z,36.83
2019-05-21T05:27:56.646Z,35.93
2019-05-21T05:30:26.548Z,33.60
2019-05-21T05:32:56.344Z,27.03
2019-05-21T05:35:26.147Z,26.37
2019-05-21T05:37:56.010Z,27.87
2019-05-21T05:40:25.884Z,29.87
2019-05-21T05:42:55.947Z,29.77
2019-05-21T05:45:25.796Z,42.37
2019-05-21T05:47:55.767Z,28.63
2019-05-21T05:50:28.627Z,28.07
2019-05-21T05:52:58.361Z,34.67
2019-05-21T05:55:28.152Z,32.57
2019-05-21T05:57:57.863Z,30.83
2019-05-21T06:00:27.731Z,34.30
2019-05-21T06:02:57.453Z,31.03
2019-05-21T06:05:27.228Z,39.47
2019-05-21T06:08:00.215Z,29.30
2019-05-21T06:10:28.432Z,34.63
2019-05-21T06:12:58.159Z,22.53
2019-05-21T06:15:28.518Z,34.17
2019-05-21T06:17:58.327Z,28.90
2019-05-21T06:20:28.103Z,33.60
2019-05-21T06:22:58.092Z,29.20
2019-05-21T06:25:28.010Z,29.27
2019-05-21T06:27:57.775Z,28.07
2019-05-21T06:30:27.484Z,27.33
2019-05-21T06:32:57.195Z,29.03
2019-05-21T06:35:27.048Z,27.97
2019-05-21T06:37:57.732Z,31.40
2019-05-21T06:40:27.463Z,20.53
2019-05-21T06:42:57.193Z,26.70
2019-05-21T06:45:27.164Z,25.37
2019-05-21T06:47:56.924Z,23.77
2019-05-21T06:50:26.802Z,26.50
2019-05-21T06:52:56.644Z,24.83
2019-05-21T06:55:26.521Z,20.97
2019-05-21T06:57:56.379Z,24.43
2019-05-21T07:00:26.210Z,17.60
2019-05-21T07:02:56.312Z,22.23
2019-05-21T07:05:26.006Z,20.27
2019-05-21T07:07:55.959Z,24.60
2019-05-21T07:10:25.817Z,23.23
2019-05-21T07:12:55.582Z,22.40
2019-05-21T07:15:26.330Z,15.23
2019-05-21T07:17:56.151Z,13.90
2019-05-21T07:20:26.002Z,18.83
2019-05-21T07:22:56.064Z,16.90
2019-05-21T07:25:25.816Z,16.07
2019-05-21T07:27:55.579Z,15.07
2019-05-21T07:30:25.364Z,13.80
2019-05-21T07:32:55.456Z,23.10
2019-05-21T07:35:25.258Z,18.27
2019-05-21T07:37:55.099Z,16.67
2019-05-21T07:40:24.883Z,20.30
2019-05-21T07:42:54.763Z,17.93
2019-05-21T07:45:24.539Z,15.30
2019-05-21T07:47:54.233Z,21.77
2019-05-21T07:50:23.995Z,15.23
2019-05-21T07:52:53.849Z,14.80
2019-05-21T07:56:10.763Z,16.93
2019-05-21T07:58:45.073Z,19.40
2019-05-21T08:01:15.694Z,14.93
2019-05-21T08:03:45.454Z,11.73
2019-05-21T08:06:15.310Z,14.83
2019-05-21T08:08:46.159Z,20.47
2019-05-21T08:11:15.843Z,23.00
2019-05-21T08:13:45.627Z,18.30
2019-05-21T08:16:15.528Z,18.17
2019-05-21T08:18:45.274Z,19.07
2019-05-21T08:21:15.052Z,14.10
2019-05-21T08:23:44.739Z,12.83
2019-05-21T08:26:14.603Z,23.20
2019-05-21T08:28:44.456Z,11.83
2019-05-21T08:31:16.761Z,11.00
2019-05-21T08:33:49.746Z,14.83
2019-05-21T08:36:19.700Z,13.47
2019-05-21T08:38:49.397Z,13.20
2019-05-21T08:41:20.837Z,16.40
2019-05-21T08:43:50.626Z,9.80
2019-05-21T08:46:20.395Z,9.57
2019-05-21T08:48:50.169Z,9.50
2019-05-21T08:51:19.972Z,16.37
2019-05-21T08:53:49.755Z,11.93
2019-05-21T08:56:19.676Z,9.50
2019-05-21T08:58:49.369Z,19.13
2019-05-21T09:01:19.203Z,12.23
2019-05-21T09:03:48.955Z,15.00
2019-05-21T09:06:18.856Z,7.20
2019-05-21T09:08:48.539Z,13.47
2019-05-21T09:11:21.071Z,12.60
2019-05-21T09:13:50.935Z,13.17
2019-05-21T09:16:20.703Z,19.37
2019-05-21T09:18:50.455Z,11.47
2019-05-21T09:21:20.163Z,8.47
2019-05-21T09:23:49.954Z,10.73
2019-05-21T09:26:19.839Z,10.53
2019-05-21T09:28:49.519Z,11.37
2019-05-21T09:31:19.323Z,10.27
2019-05-21T09:33:49.207Z,10.03
2019-05-21T09:36:18.901Z,10.27
2019-05-21T09:38:48.640Z,18.90
2019-05-21T09:41:18.369Z,7.83
2019-05-21T09:43:48.144Z,11.03
2019-05-21T09:46:19.145Z,11.50
2019-05-21T09:48:48.846Z,9.43
2019-05-21T09:51:20.201Z,8.57
2019-05-21T09:53:50.241Z,11.63
2019-05-21T09:56:32.216Z,11.47
2019-05-21T09:59:28.210Z,9.83
2019-05-21T10:02:01.727Z,9.93
2019-05-21T10:04:31.424Z,13.57
2019-05-21T10:07:01.794Z,10.23
2019-05-21T10:09:31.627Z,14.67
2019-05-21T10:12:01.503Z,16.73
2019-05-21T10:14:34.124Z,12.30
2019-05-21T10:17:02.828Z,13.10
2019-05-21T10:19:32.586Z,17.57
2019-05-21T10:22:02.501Z,13.23
2019-05-21T10:24:32.328Z,10.43
2019-05-21T10:27:03.476Z,16.67
2019-05-21T10:29:33.494Z,15.43
2019-05-21T10:32:03.271Z,10.33
2019-05-21T10:34:35.607Z,11.83
2019-05-21T10:37:05.434Z,13.70
2019-05-21T10:39:35.224Z,10.17
2019-05-21T10:42:05.345Z,17.20
2019-05-21T10:44:35.223Z,13.33
2019-05-21T10:47:06.072Z,14.07
2019-05-21T10:49:35.843Z,10.57
2019-05-21T10:52:05.687Z,10.40
2019-05-21T10:54:36.499Z,8.77
2019-05-21T10:57:06.290Z,11.77
2019-05-21T10:59:36.135Z,11.07
2019-05-21T11:02:16.296Z,17.13
2019-05-21T11:04:50.645Z,20.97
2019-05-21T11:07:22.432Z,10.90
2019-05-21T11:09:52.197Z,13.83
2019-05-21T11:12:23.025Z,11.10
2019-05-21T11:14:52.738Z,13.20
2019-05-21T11:17:22.704Z,17.80
2019-05-21T11:19:52.514Z,10.03
2019-05-21T11:22:22.333Z,18.07
2019-05-21T11:24:52.165Z,17.97
2019-05-21T11:27:24.736Z,16.37
2019-05-21T11:29:54.604Z,14.23
2019-05-21T11:32:24.399Z,15.17
2019-05-21T11:34:54.286Z,25.50
2019-05-21T11:37:24.135Z,20.07
2019-05-21T11:39:53.925Z,13.27
2019-05-21T11:42:23.768Z,13.07
2019-05-21T11:44:53.568Z,16.77
2019-05-21T11:47:23.320Z,13.10
2019-05-21T11:49:53.099Z,16.53
2019-05-21T11:52:22.876Z,12.47
2019-05-21T11:54:55.749Z,20.53
2019-05-21T11:57:24.280Z,13.97
2019-05-21T11:59:56.901Z,15.73
2019-05-21T12:02:26.607Z,13.07
2019-05-21T12:04:56.381Z,16.50
2019-05-21T12:07:26.169Z,16.13
2019-05-21T12:09:55.979Z,12.07
2019-05-21T12:12:25.707Z,17.47
2019-05-21T12:14:55.412Z,24.83
2019-05-21T12:17:25.187Z,18.40
2019-05-21T12:19:55.940Z,14.23
2019-05-21T12:22:25.711Z,16.17
2019-05-21T12:24:55.489Z,16.70
2019-05-21T12:27:25.277Z,19.10
2019-05-21T12:29:55.031Z,17.53
2019-05-21T12:32:24.751Z,15.33
2019-05-21T12:34:54.455Z,19.30
2019-05-21T12:37:24.251Z,23.73
2019-05-21T12:39:53.999Z,20.77
2019-05-21T12:42:25.085Z,18.77
2019-05-21T12:44:55.224Z,23.80
2019-05-21T12:47:25.068Z,21.03
2019-05-21T12:49:54.771Z,23.30
2019-05-21T12:52:24.565Z,31.40
2019-05-21T12:54:54.423Z,26.97
2019-05-21T12:57:24.275Z,21.53
2019-05-21T12:59:54.044Z,22.27
2019-05-21T13:02:23.903Z,24.30
2019-05-21T13:04:53.612Z,24.60
2019-05-21T13:07:23.450Z,18.90
2019-05-21T13:09:53.311Z,21.90
2019-05-21T13:12:23.074Z,22.20
2019-05-21T13:14:52.893Z,20.90
2019-05-21T13:17:22.601Z,13.83
2019-05-21T13:19:52.494Z,31.00
2019-05-21T13:22:22.257Z,22.93
2019-05-21T13:24:51.965Z,19.23
2019-05-21T13:27:21.819Z,17.80
2019-05-21T13:29:51.546Z,22.37
2019-05-21T13:32:21.304Z,16.93
2019-05-21T13:34:51.111Z,14.77
2019-05-21T13:37:20.913Z,15.47
2019-05-21T13:39:50.913Z,18.90
2019-05-21T13:42:20.641Z,27.27
2019-05-21T13:44:51.312Z,16.63
2019-05-21T13:47:22.751Z,17.67
2019-05-21T13:49:52.598Z,18.87
2019-05-21T13:52:22.504Z,25.20
2019-05-21T13:54:52.224Z,17.77
2019-05-21T13:57:21.983Z,17.50
2019-05-21T13:59:51.704Z,16.33
2019-05-21T14:02:21.469Z,22.97
2019-05-21T14:04:51.248Z,23.90
2019-05-21T14:07:20.940Z,28.30
2019-05-21T14:10:13.170Z,26.13
2019-05-21T14:12:25.135Z,25.70
2019-05-21T14:14:54.907Z,22.30
2019-05-21T14:17:24.619Z,22.13
2019-05-21T14:19:54.416Z,21.87
2019-05-21T14:22:24.184Z,26.70
2019-05-21T14:24:54.058Z,19.47
2019-05-21T14:27:23.890Z,23.63
2019-05-21T14:29:53.682Z,25.10
2019-05-21T14:32:23.425Z,22.17
2019-05-21T14:35:01.337Z,22.03
2019-05-21T14:37:24.955Z,20.03
2019-05-21T14:39:54.752Z,20.83
2019-05-21T14:42:24.571Z,20.90
2019-05-21T14:44:54.376Z,36.40
2019-05-21T14:47:24.228Z,30.53
2019-05-21T14:49:53.987Z,25.53
2019-05-21T14:52:23.779Z,26.07
2019-05-21T14:54:53.476Z,24.77
2019-05-21T14:57:23.379Z,37.97
2019-05-21T14:59:55.119Z,28.17
2019-05-21T15:02:24.811Z,24.80
2019-05-21T15:04:54.670Z,35.43
2019-05-21T15:07:25.721Z,20.17
2019-05-21T15:09:55.593Z,24.97
2019-05-21T15:12:25.374Z,26.27
2019-05-21T15:14:55.140Z,26.73
2019-05-21T15:17:24.868Z,29.30
2019-05-21T15:19:56.454Z,20.73
2019-05-21T15:22:26.227Z,32.37
2019-05-21T15:24:55.929Z,30.10
2019-05-21T15:27:26.619Z,39.87
2019-05-21T15:29:57.318Z,24.10
2019-05-21T15:32:29.541Z,28.30
2019-05-21T15:34:59.866Z,25.27
2019-05-21T15:37:29.653Z,25.43
2019-05-21T15:39:59.429Z,28.03
2019-05-21T15:42:29.336Z,20.73
2019-05-21T15:44:59.051Z,32.47
2019-05-21T15:47:28.845Z,24.47
2019-05-21T15:49:58.633Z,28.10
2019-05-21T15:52:28.480Z,20.47
2019-05-21T15:54:58.177Z,31.07
2019-05-21T15:57:27.899Z,31.37
2019-05-21T15:59:57.727Z,33.10
2019-05-21T16:02:27.503Z,26.57
2019-05-21T16:04:58.189Z,28.23
2019-05-21T16:07:28.124Z,22.63
2019-05-21T16:09:57.900Z,19.57
2019-05-21T16:12:27.600Z,31.93
2019-05-21T16:14:57.420Z,34.03
2019-05-21T16:17:27.143Z,34.47
2019-05-21T16:19:56.996Z,39.53
2019-05-21T16:22:26.771Z,25.83
2019-05-21T16:24:56.601Z,25.13
2019-05-21T16:27:26.291Z,24.63
2019-05-21T16:29:56.004Z,27.37
2019-05-21T16:32:25.741Z,28.80
2019-05-21T16:34:55.780Z,31.73
2019-05-21T16:37:25.797Z,30.03
2019-05-21T16:39:55.637Z,32.07
2019-05-21T16:42:25.416Z,30.67
2019-05-21T16:44:55.208Z,29.87
2019-05-21T16:47:24.963Z,40.73
2019-05-21T16:49:54.671Z,34.03
2019-05-21T16:52:24.459Z,30.23
2019-05-21T16:54:54.223Z,30.90
2019-05-21T16:57:24.077Z,25.00
2019-05-21T16:59:53.926Z,26.17
2019-05-21T17:02:23.695Z,35.93
2019-05-21T17:04:53.471Z,22.40
2019-05-21T17:07:23.179Z,23.70
2019-05-21T17:09:53.170Z,23.97
2019-05-21T17:12:23.020Z,24.17
2019-05-21T17:14:52.731Z,20.97
2019-05-21T17:17:22.607Z,25.03
2019-05-21T17:19:52.406Z,31.30
2019-05-21T17:22:22.212Z,25.60
2019-05-21T17:24:51.894Z,26.37
2019-05-21T17:27:23.297Z,18.23
2019-05-21T17:29:53.110Z,21.53
2019-05-21T17:32:23.042Z,19.40
2019-05-21T17:34:52.872Z,18.23
2019-05-21T17:37:22.759Z,18.93
2019-05-21T17:39:52.596Z,16.03
2019-05-21T17:42:22.420Z,17.47
2019-05-21T17:44:52.503Z,16.47
2019-05-21T17:47:22.299Z,14.57
2019-05-21T17:49:52.100Z,17.90
2019-05-21T17:52:21.983Z,17.50
2019-05-21T17:54:56.784Z,21.40
2019-05-21T17:57:25.795Z,30.50
2019-05-21T17:59:55.599Z,25.37
2019-05-21T18:02:26.982Z,21.57
2019-05-21T18:04:57.867Z,31.43
2019-05-21T18:07:27.917Z,27.90
2019-05-21T18:09:58.571Z,24.47
2019-05-21T18:12:32.048Z,39.40
2019-05-21T18:15:00.956Z,34.10
2019-05-21T18:17:32.952Z,27.70
2019-05-21T18:20:03.031Z,26.43
2019-05-21T18:22:33.169Z,27.37
2019-05-21T18:25:03.262Z,32.80
2019-05-21T18:27:33.604Z,29.57
2019-05-21T18:30:04.018Z,30.07
2019-05-21T18:32:36.274Z,27.10
2019-05-21T18:35:06.812Z,42.40
2019-05-21T18:37:37.288Z,37.13
2019-05-21T18:40:07.581Z,30.77
2019-05-21T18:42:37.532Z,24.60
2019-05-21T18:45:07.595Z,24.80
2019-05-21T18:47:38.534Z,28.47
2019-05-21T18:50:09.361Z,22.33
2019-05-21T18:52:39.324Z,29.13
2019-05-21T18:55:10.916Z,22.50
2019-05-21T18:57:41.766Z,27.27
2019-05-21T19:00:12.430Z,34.10
2019-05-21T19:02:42.428Z,26.40
2019-05-21T19:05:12.771Z,28.63
2019-05-21T19:07:42.802Z,36.93
2019-05-21T19:10:13.923Z,23.77
2019-05-21T19:12:43.779Z,25.53
2019-05-21T19:15:14.223Z,22.77
2019-05-21T19:17:44.011Z,28.10
2019-05-21T19:20:14.558Z,24.63
2019-05-21T19:22:47.443Z,26.80
2019-05-21T19:25:17.373Z,31.00
2019-05-21T19:27:47.218Z,24.07
2019-05-21T19:30:16.880Z,38.23
2019-05-21T19:32:47.356Z,19.10
2019-05-21T19:35:17.471Z,19.67
2019-05-21T19:37:47.339Z,14.93
2019-05-21T19:40:17.724Z,14.67
2019-05-21T19:42:54.882Z,15.70
2019-05-21T19:45:20.159Z,12.40
2019-05-21T19:47:50.075Z,11.53
2019-05-21T19:50:19.917Z,16.00
2019-05-21T19:52:50.000Z,11.50
2019-05-21T19:55:19.695Z,22.10
2019-05-21T19:57:49.459Z,16.00
2019-05-21T20:00:21.975Z,16.57
2019-05-21T20:02:52.562Z,14.33
2019-05-21T20:05:23.166Z,13.30
2019-05-21T20:07:57.395Z,13.70
2019-05-21T20:10:27.699Z,18.27
2019-05-21T20:12:57.616Z,16.33
2019-05-21T20:15:28.501Z,17.17
2019-05-21T20:18:06.993Z,15.60
2019-05-21T20:20:30.563Z,23.23
2019-05-21T20:23:02.121Z,19.00
2019-05-21T20:25:33.615Z,29.73
2019-05-21T20:28:05.267Z,20.47
2019-05-21T20:30:35.239Z,25.67
2019-05-21T20:33:05.262Z,22.13
2019-05-21T20:35:36.850Z,17.13
2019-05-21T20:38:08.156Z,20.40
2019-05-21T20:40:38.377Z,17.07
2019-05-21T20:43:08.219Z,19.27
2019-05-21T20:45:41.299Z,20.13
2019-05-21T20:48:12.735Z,21.67
2019-05-21T20:50:42.530Z,26.53
2019-05-21T20:53:12.766Z,19.07
2019-05-21T20:55:42.535Z,26.20
2019-05-21T20:58:12.946Z,20.00
2019-05-21T21:00:48.637Z,17.97
2019-05-21T21:03:18.430Z,27.07
2019-05-21T21:05:48.308Z,24.23
2019-05-21T21:08:19.488Z,19.53
2019-05-21T21:10:49.349Z,18.57
2019-05-21T21:13:19.178Z,18.93
2019-05-21T21:15:49.170Z,18.97
2019-05-21T21:18:19.615Z,22.67
2019-05-21T21:20:49.565Z,15.97
2019-05-21T21:23:22.655Z,19.20
2019-05-21T21:25:52.453Z,16.37
2019-05-21T21:28:22.762Z,14.40
2019-05-21T21:30:53.141Z,10.87
2019-05-21T21:33:23.581Z,14.57
2019-05-21T21:35:53.705Z,15.27
2019-05-21T21:38:26.090Z,10.00
2019-05-21T21:40:56.082Z,12.83
2019-05-21T21:43:27.279Z,13.67
2019-05-21T21:45:57.063Z,12.70
2019-05-21T21:48:27.624Z,10.47
2019-05-21T21:50:58.939Z,10.93
2019-05-21T21:53:28.658Z,10.87
2019-05-21T21:55:58.343Z,9.97
2019-05-21T21:58:28.205Z,16.27
2019-05-21T22:01:46.667Z,12.23
2019-05-21T22:04:20.460Z,9.83
2019-05-21T22:06:50.767Z,7.20
2019-05-21T22:09:30.974Z,15.17
2019-05-21T22:12:02.480Z,10.10
2019-05-21T22:14:49.251Z,14.13
2019-05-21T22:17:07.221Z,12.30
2019-05-21T22:19:37.367Z,7.17
2019-05-21T22:22:08.024Z,9.77
2019-05-21T22:24:38.005Z,11.60
2019-05-21T22:27:08.863Z,11.03
2019-05-21T22:29:39.285Z,11.37
2019-05-21T22:32:09.105Z,7.50
2019-05-21T22:34:39.053Z,10.03
2019-05-21T22:37:12.624Z,12.90
2019-05-21T22:39:43.490Z,12.83
2019-05-21T22:42:14.126Z,13.87
2019-05-21T22:44:43.990Z,12.30
2019-05-21T22:47:14.137Z,8.87
2019-05-21T22:49:43.983Z,10.03
2019-05-21T22:52:14.118Z,9.87
2019-05-21T22:54:43.820Z,11.57
2019-05-21T22:57:13.697Z,8.70
2019-05-21T22:59:44.364Z,11.80
2019-05-21T23:02:19.512Z,9.70
2019-05-21T23:04:49.373Z,11.73
2019-05-21T23:07:19.230Z,16.10
2019-05-21T23:09:49.028Z,16.33
2019-05-21T23:12:19.733Z,12.47
2019-05-21T23:14:50.127Z,13.40
2019-05-21T23:17:21.514Z,11.70
2019-05-21T23:19:52.890Z,14.83
2019-05-21T23:22:26.267Z,16.03
2019-05-21T23:24:56.039Z,13.17
2019-05-21T23:27:26.311Z,10.37
2019-05-21T23:29:56.632Z,6.67
2019-05-21T23:32:26.418Z,8.50
2019-05-21T23:34:57.046Z,8.00
2019-05-21T23:37:27.326Z,6.80
2019-05-21T23:39:57.567Z,6.37
2019-05-21T23:42:29.882Z,9.73
2019-05-21T23:44:59.056Z,6.33
2019-05-21T23:47:29.254Z,14.23
2019-05-21T23:49:59.231Z,7.00
2019-05-21T23:52:29.386Z,6.77
2019-05-21T23:54:59.788Z,9.73
2019-05-21T23:57:30.696Z,14.27
